CSG9 weather

Sagard Heliport
Sagard, Quebec, Canada

Public forecast

Using degrees Celsius for public forecast. Weather courtesy of forecast.io.

METAR (pilot weather report)

Closest report is CFB Bagotville, 42.1 nm (77.9 km) WNW. Retrieved 2019/05/21 11:00 UTC (57 minutes ago):

CYBG 211100Z 28014KT 10SM -RA OVC018 07/04 A2960 RMK SC8 CIG VRB 13-23 SLP029

TAF (pilot weather forecast)

Forecast is more than 12 hours old.

Closest forecast is Charlevoix Airport, 24.3 nm (45.1 km) SSW. Retrieved 2018/06/10 18:00 UTC (11 months ago):

TAF CYML 101730Z 1018/1106 12005KT P6SM FEW060 FM102100 14006KT P6SM SCT080 BECMG 1021/1023 VRB03KT RMK NXT FCST BY 110000Z